Time;durP1;ratioP1;P1;durP2;ratioP2;P2;SDS_P1;SDS_P2;PMS_P1;PMS_P2;Temp;Humidity;BMP_temperature;BMP_pressure;BME280_temperature;BME280_humidity;BME280_pressure;Samples;Min_cycle;Max_cycle;Signal;HPM_P1;HPM_P2
2022/04/24 00:00:05;;;;;;;11.98;9.13;;;;;;;;;;5066800;28;20064;-69
2022/04/24 00:02:32;;;;;;;12.13;8.13;;;;;;;;;;5086238;28;20046;-69
2022/04/24 00:04:58;;;;;;;10.40;8.32;;;;;;;;;;5083255;28;20076;-69
2022/04/24 00:07:25;;;;;;;15.82;8.10;;;;;;;;;;5044355;28;20123;-69
2022/04/24 00:09:51;;;;;;;11.00;8.00;;;;;;;;;;5071725;28;20032;-69
2022/04/24 00:12:18;;;;;;;14.10;8.85;;;;;;;;;;5062750;28;20131;-69
2022/04/24 00:14:44;;;;;;;12.15;8.77;;;;;;;;;;5069274;28;20137;-69
2022/04/24 00:17:11;;;;;;;8.40;7.15;;;;;;;;;;5068238;28;20444;-69
2022/04/24 00:19:38;;;;;;;10.00;7.97;;;;;;;;;;5065838;28;20049;-69
2022/04/24 00:22:04;;;;;;;12.30;8.00;;;;;;;;;;5072692;28;20040;-69
2022/04/24 00:24:32;;;;;;;9.52;7.22;;;;;;;;;;5059728;28;20040;-69
2022/04/24 00:26:58;;;;;;;10.75;7.78;;;;;;;;;;5084027;28;20089;-69
2022/04/24 00:29:24;;;;;;;9.10;7.32;;;;;;;;;;5070449;28;20040;-69
2022/04/24 00:31:51;;;;;;;10.30;6.78;;;;;;;;;;5063208;28;20043;-69
2022/04/24 00:34:17;;;;;;;11.82;7.95;;;;;;;;;;5059147;28;20075;-69
2022/04/24 00:36:46;;;;;;;8.43;6.90;;;;;;;;;;5081017;28;20064;-69
2022/04/24 00:39:13;;;;;;;10.70;7.40;;;;;;;;;;5055904;28;20532;-69
2022/04/24 00:41:49;;;;;;;8.50;6.38;;;;;;;;;;5084689;28;20418;-69
2022/04/24 00:44:15;;;;;;;11.45;7.00;;;;;;;;;;5035313;28;20055;-69
2022/04/24 00:46:48;;;;;;;8.45;5.85;;;;;;;;;;5071888;28;20229;-69
2022/04/24 00:49:14;;;;;;;10.38;6.72;;;;;;;;;;5054598;28;20048;-69
2022/04/24 00:51:42;;;;;;;11.00;7.18;;;;;;;;;;5061488;28;20103;-69
2022/04/24 00:54:08;;;;;;;9.27;6.88;;;;;;;;;;5064980;28;20035;-69
2022/04/24 00:56:35;;;;;;;8.95;7.03;;;;;;;;;;5073947;28;20041;-69
2022/04/24 00:59:03;;;;;;;9.15;7.03;;;;;;;;;;5065541;28;20055;-69
2022/04/24 01:01:29;;;;;;;6.82;5.88;;;;;;;;;;5070824;28;20124;-69
2022/04/24 01:04:00;;;;;;;11.25;6.50;;;;;;;;;;5077219;28;20537;-69
2022/04/24 01:06:32;;;;;;;9.13;6.95;;;;;;;;;;5069676;28;20036;-69
2022/04/24 01:09:20;;;;;;;9.15;7.13;;;;;;;;;;5070476;28;20123;-69
2022/04/24 01:11:47;;;;;;;7.40;6.32;;;;;;;;;;5066111;28;20155;-70
2022/04/24 01:14:16;;;;;;;8.88;7.60;;;;;;;;;;5083443;28;20360;-69
2022/04/24 01:16:42;;;;;;;7.53;6.25;;;;;;;;;;5069006;28;20120;-69
2022/04/24 01:19:09;;;;;;;8.50;6.43;;;;;;;;;;5075561;28;20518;-69
2022/04/24 01:21:35;;;;;;;10.35;7.07;;;;;;;;;;5060413;28;20039;-69
2022/04/24 01:24:04;;;;;;;9.65;7.68;;;;;;;;;;5068211;28;20072;-69
2022/04/24 01:26:30;;;;;;;9.73;7.30;;;;;;;;;;5068896;28;20134;-69
2022/04/24 01:28:56;;;;;;;11.50;6.78;;;;;;;;;;5073352;28;20387;-69
2022/04/24 01:31:22;;;;;;;10.02;7.00;;;;;;;;;;5071500;28;20044;-69
2022/04/24 01:33:48;;;;;;;8.65;6.75;;;;;;;;;;5069093;28;20067;-69
2022/04/24 01:36:14;;;;;;;10.15;6.82;;;;;;;;;;5071570;28;20068;-69
2022/04/24 01:38:41;;;;;;;9.13;6.68;;;;;;;;;;5063520;28;20075;-69
2022/04/24 01:41:07;;;;;;;8.40;7.13;;;;;;;;;;5087571;28;20527;-69
2022/04/24 01:43:36;;;;;;;12.05;7.32;;;;;;;;;;5055773;28;20502;-69
2022/04/24 01:46:03;;;;;;;9.95;6.90;;;;;;;;;;5064166;28;20097;-69
2022/04/24 01:48:29;;;;;;;8.52;6.35;;;;;;;;;;5073821;28;20071;-69
2022/04/24 01:50:55;;;;;;;12.27;7.28;;;;;;;;;;5063603;28;20048;-69
2022/04/24 01:53:22;;;;;;;10.95;6.85;;;;;;;;;;5078098;28;20128;-69
2022/04/24 01:55:48;;;;;;;8.32;6.43;;;;;;;;;;5053243;28;20050;-69
2022/04/24 01:58:14;;;;;;;10.25;7.68;;;;;;;;;;5036788;28;20072;-69
2022/04/24 02:00:40;;;;;;;7.95;6.82;;;;;;;;;;5063720;28;20057;-69
2022/04/24 02:03:06;;;;;;;9.85;7.03;;;;;;;;;;5082616;28;20051;-69
2022/04/24 02:05:32;;;;;;;8.55;7.47;;;;;;;;;;5075970;28;20040;-70
2022/04/24 02:07:59;;;;;;;12.13;7.20;;;;;;;;;;5056834;28;20080;-69
2022/04/24 02:10:25;;;;;;;8.60;6.82;;;;;;;;;;5053028;28;20036;-69
2022/04/24 02:12:51;;;;;;;8.82;6.95;;;;;;;;;;5073964;28;20040;-69
2022/04/24 02:15:18;;;;;;;8.07;6.70;;;;;;;;;;5055201;28;20040;-69
2022/04/24 02:17:44;;;;;;;10.52;7.28;;;;;;;;;;5081036;28;20036;-69
2022/04/24 02:20:10;;;;;;;11.07;7.70;;;;;;;;;;5053498;28;20073;-69
2022/04/24 02:22:36;;;;;;;9.63;6.90;;;;;;;;;;5067479;28;20101;-69
2022/04/24 02:25:04;;;;;;;7.85;6.88;;;;;;;;;;5069381;28;20524;-69
2022/04/24 02:27:31;;;;;;;8.68;6.63;;;;;;;;;;5053047;28;20048;-69
2022/04/24 02:29:57;;;;;;;11.43;7.63;;;;;;;;;;5053953;28;20478;-69
2022/04/24 02:32:23;;;;;;;8.88;7.43;;;;;;;;;;5079463;28;20040;-69
2022/04/24 02:34:49;;;;;;;10.45;8.02;;;;;;;;;;5083877;28;20043;-69
2022/04/24 02:37:15;;;;;;;11.30;7.13;;;;;;;;;;5071317;28;20115;-69
2022/04/24 02:39:41;;;;;;;10.07;7.63;;;;;;;;;;5086388;28;20043;-69
2022/04/24 02:42:08;;;;;;;8.73;6.35;;;;;;;;;;5068965;28;20054;-69
2022/04/24 02:44:34;;;;;;;10.77;8.00;;;;;;;;;;5080589;28;20047;-70
2022/04/24 02:47:00;;;;;;;8.80;6.65;;;;;;;;;;5065795;28;20044;-69
2022/04/24 02:49:27;;;;;;;12.10;6.60;;;;;;;;;;5084851;28;20489;-69
2022/04/24 02:51:53;;;;;;;10.63;7.93;;;;;;;;;;5069345;28;20486;-69
2022/04/24 02:54:19;;;;;;;10.43;7.65;;;;;;;;;;5070929;28;20036;-69
2022/04/24 02:56:45;;;;;;;9.57;7.45;;;;;;;;;;5086494;28;20032;-68
2022/04/24 02:59:14;;;;;;;10.68;7.38;;;;;;;;;;5067944;28;20085;-69
2022/04/24 03:01:40;;;;;;;8.20;6.70;;;;;;;;;;5068674;28;20043;-69
2022/04/24 03:04:07;;;;;;;8.88;6.88;;;;;;;;;;5066659;28;20131;-69
2022/04/24 03:06:33;;;;;;;9.73;6.55;;;;;;;;;;5085552;28;20187;-69
2022/04/24 03:08:59;;;;;;;9.38;6.72;;;;;;;;;;5085023;28;20560;-69
2022/04/24 03:11:25;;;;;;;12.57;7.13;;;;;;;;;;5066800;28;20060;-69
2022/04/24 03:13:52;;;;;;;9.48;7.10;;;;;;;;;;5084601;28;20481;-69
2022/04/24 03:16:18;;;;;;;10.95;6.85;;;;;;;;;;5082001;28;20058;-69
2022/04/24 03:18:44;;;;;;;9.80;7.88;;;;;;;;;;5083758;28;20075;-69
2022/04/24 03:21:10;;;;;;;9.52;7.40;;;;;;;;;;5066129;28;20051;-69
2022/04/24 03:23:37;;;;;;;10.82;7.00;;;;;;;;;;5066830;28;20036;-69
2022/04/24 03:26:03;;;;;;;11.02;7.70;;;;;;;;;;5068292;28;20052;-69
2022/04/24 03:28:29;;;;;;;12.75;7.65;;;;;;;;;;5068755;28;20047;-69
2022/04/24 03:30:56;;;;;;;10.35;7.53;;;;;;;;;;5057206;28;20049;-69
2022/04/24 03:33:22;;;;;;;9.75;7.40;;;;;;;;;;5070177;28;20076;-69
2022/04/24 03:35:48;;;;;;;11.25;8.00;;;;;;;;;;5066605;28;20076;-69
2022/04/24 03:38:14;;;;;;;11.27;7.68;;;;;;;;;;5068526;28;20045;-69
2022/04/24 03:40:40;;;;;;;8.63;6.72;;;;;;;;;;5055323;28;20398;-69
2022/04/24 03:43:07;;;;;;;11.15;7.95;;;;;;;;;;5072705;28;20432;-70
2022/04/24 03:45:33;;;;;;;10.00;6.22;;;;;;;;;;5080470;28;20093;-68
2022/04/24 03:47:59;;;;;;;8.73;7.03;;;;;;;;;;5072803;28;20295;-69
2022/04/24 03:50:25;;;;;;;9.32;7.00;;;;;;;;;;5073302;28;20092;-69
2022/04/24 03:52:51;;;;;;;11.20;7.03;;;;;;;;;;5079562;28;20093;-69
2022/04/24 03:55:18;;;;;;;11.07;7.47;;;;;;;;;;5039776;28;20037;-69
2022/04/24 03:57:44;;;;;;;10.05;6.88;;;;;;;;;;5070151;28;20056;-69
2022/04/24 04:00:10;;;;;;;11.90;6.88;;;;;;;;;;5088148;28;20048;-69
2022/04/24 04:02:43;;;;;;;9.75;6.47;;;;;;;;;;5060224;28;20036;-69
2022/04/24 04:05:09;;;;;;;11.10;7.72;;;;;;;;;;5051796;28;20516;-69
2022/04/24 04:07:36;;;;;;;10.38;6.90;;;;;;;;;;5066512;28;20071;-69
2022/04/24 04:10:02;;;;;;;10.30;6.85;;;;;;;;;;5073544;28;20093;-69
2022/04/24 04:12:28;;;;;;;7.45;6.72;;;;;;;;;;5081613;28;20041;-69
2022/04/24 04:14:57;;;;;;;9.57;6.68;;;;;;;;;;5067389;28;20040;-69
2022/04/24 04:17:25;;;;;;;9.00;6.80;;;;;;;;;;5068584;28;20044;-69
2022/04/24 04:19:53;;;;;;;10.88;7.38;;;;;;;;;;5082078;28;20048;-69
2022/04/24 04:22:19;;;;;;;10.43;8.35;;;;;;;;;;5079759;28;20047;-68
2022/04/24 04:24:45;;;;;;;9.82;6.72;;;;;;;;;;5054788;28;20051;-68
2022/04/24 04:27:11;;;;;;;9.80;7.20;;;;;;;;;;5086918;28;20044;-69
2022/04/24 04:29:37;;;;;;;10.90;6.65;;;;;;;;;;5054454;28;20037;-69
2022/04/24 04:32:04;;;;;;;11.13;7.43;;;;;;;;;;5054513;28;20452;-69
2022/04/24 04:34:30;;;;;;;8.63;5.57;;;;;;;;;;5051458;28;20076;-69
2022/04/24 04:36:56;;;;;;;9.57;6.80;;;;;;;;;;5055975;28;20502;-69
2022/04/24 04:39:22;;;;;;;8.02;6.63;;;;;;;;;;5083227;28;20040;-70
2022/04/24 04:41:48;;;;;;;9.25;6.60;;;;;;;;;;5089011;28;20119;-69
2022/04/24 04:44:15;;;;;;;12.40;6.78;;;;;;;;;;5066955;28;20040;-69
2022/04/24 04:46:41;;;;;;;9.15;6.07;;;;;;;;;;5082112;28;20046;-69
2022/04/24 04:49:07;;;;;;;10.10;5.93;;;;;;;;;;5071132;28;20581;-69
2022/04/24 04:51:34;;;;;;;8.93;5.93;;;;;;;;;;5075913;28;20044;-68
2022/04/24 04:54:00;;;;;;;12.90;6.72;;;;;;;;;;5069910;28;20090;-69
2022/04/24 04:56:26;;;;;;;10.15;6.72;;;;;;;;;;5078210;28;20047;-69
2022/04/24 04:58:52;;;;;;;11.45;6.45;;;;;;;;;;5064974;28;20060;-69
2022/04/24 05:01:18;;;;;;;8.55;6.20;;;;;;;;;;5061483;28;20059;-69
2022/04/24 05:03:44;;;;;;;10.18;6.13;;;;;;;;;;5049745;28;20073;-69
2022/04/24 05:06:11;;;;;;;8.68;6.28;;;;;;;;;;5063509;28;20103;-69
2022/04/24 05:08:37;;;;;;;9.93;6.78;;;;;;;;;;5064337;28;20036;-69
2022/04/24 05:11:03;;;;;;;10.60;6.85;;;;;;;;;;5061623;28;20040;-69
2022/04/24 05:13:29;;;;;;;9.85;6.22;;;;;;;;;;5059294;28;20166;-69
2022/04/24 05:15:55;;;;;;;8.88;6.80;;;;;;;;;;5036092;28;20103;-69
2022/04/24 05:18:22;;;;;;;14.80;6.50;;;;;;;;;;5034860;28;20406;-69
2022/04/24 05:20:48;;;;;;;10.13;6.20;;;;;;;;;;5065320;28;20048;-69
2022/04/24 05:23:14;;;;;;;11.63;6.85;;;;;;;;;;5048248;28;20390;-69
2022/04/24 05:25:40;;;;;;;9.85;6.00;;;;;;;;;;5068261;28;20395;-69
2022/04/24 05:28:06;;;;;;;9.07;6.22;;;;;;;;;;5062612;28;20101;-69
2022/04/24 05:30:33;;;;;;;9.20;6.28;;;;;;;;;;5064755;28;20037;-69
2022/04/24 05:32:59;;;;;;;11.95;6.72;;;;;;;;;;5066972;28;20047;-69
2022/04/24 05:35:25;;;;;;;9.05;7.03;;;;;;;;;;5064557;28;20045;-69
2022/04/24 05:37:51;;;;;;;10.32;7.22;;;;;;;;;;5059915;28;20145;-69
2022/04/24 05:40:18;;;;;;;10.07;6.95;;;;;;;;;;5063985;28;20170;-70
2022/04/24 05:42:48;;;;;;;16.98;7.93;;;;;;;;;;5066105;28;20032;-69
2022/04/24 05:45:18;;;;;;;10.55;6.43;;;;;;;;;;5064744;28;20103;-69
2022/04/24 05:47:44;;;;;;;10.95;7.65;;;;;;;;;;5065203;28;20038;-69
2022/04/24 05:50:10;;;;;;;9.20;7.20;;;;;;;;;;5053144;28;20044;-69
2022/04/24 05:52:36;;;;;;;14.00;8.30;;;;;;;;;;5067788;28;20047;-69
2022/04/24 05:55:03;;;;;;;11.13;7.20;;;;;;;;;;5063595;28;20046;-69
2022/04/24 05:57:29;;;;;;;9.90;7.15;;;;;;;;;;5065389;28;20086;-69
2022/04/24 05:59:55;;;;;;;12.23;7.05;;;;;;;;;;5081567;28;20056;-69
2022/04/24 06:02:21;;;;;;;10.27;6.95;;;;;;;;;;5061102;28;20052;-69
2022/04/24 06:04:48;;;;;;;10.07;6.72;;;;;;;;;;5047256;28;20089;-69
2022/04/24 06:07:14;;;;;;;12.30;7.15;;;;;;;;;;5081509;28;20043;-69
2022/04/24 06:09:41;;;;;;;9.68;6.97;;;;;;;;;;5063547;28;20459;-69
2022/04/24 06:12:08;;;;;;;14.30;7.65;;;;;;;;;;5064405;28;20048;-69
2022/04/24 06:14:34;;;;;;;12.70;6.90;;;;;;;;;;5065165;28;20047;-69
2022/04/24 06:17:00;;;;;;;10.63;6.80;;;;;;;;;;5079011;28;20486;-69
2022/04/24 06:19:27;;;;;;;13.13;6.93;;;;;;;;;;5078785;28;20046;-69
2022/04/24 06:21:53;;;;;;;10.68;7.57;;;;;;;;;;5079876;28;20051;-69
2022/04/24 06:24:19;;;;;;;11.38;6.97;;;;;;;;;;5082862;28;20660;-69
2022/04/24 06:26:45;;;;;;;11.82;7.82;;;;;;;;;;5082638;28;20067;-70
2022/04/24 06:29:12;;;;;;;8.30;6.10;;;;;;;;;;5079378;28;20552;-69
2022/04/24 06:31:38;;;;;;;8.63;6.22;;;;;;;;;;5064296;28;20050;-69
2022/04/24 06:34:04;;;;;;;9.15;6.20;;;;;;;;;;5082097;28;20051;-70
2022/04/24 06:36:30;;;;;;;12.43;6.85;;;;;;;;;;5059938;28;20063;-70
2022/04/24 06:38:56;;;;;;;10.32;6.53;;;;;;;;;;5059474;28;20066;-70
2022/04/24 06:41:22;;;;;;;9.32;6.57;;;;;;;;;;5071542;28;20113;-70
2022/04/24 06:43:48;;;;;;;10.65;5.63;;;;;;;;;;5050197;28;20048;-69
2022/04/24 06:46:14;;;;;;;8.00;6.35;;;;;;;;;;5084719;28;20040;-69
2022/04/24 06:48:41;;;;;;;8.00;5.65;;;;;;;;;;5079950;28;20147;-69
2022/04/24 06:51:07;;;;;;;9.25;6.07;;;;;;;;;;5078843;28;20079;-69
2022/04/24 06:53:35;;;;;;;11.38;5.60;;;;;;;;;;5080988;28;20133;-69
2022/04/24 06:56:01;;;;;;;6.97;4.80;;;;;;;;;;5085346;28;20079;-69
2022/04/24 06:58:27;;;;;;;5.97;4.07;;;;;;;;;;5062500;28;20044;-69
2022/04/24 07:00:54;;;;;;;5.13;4.03;;;;;;;;;;5068762;28;20059;-69
2022/04/24 07:03:21;;;;;;;7.25;4.05;;;;;;;;;;5080464;28;20044;-69
2022/04/24 07:05:47;;;;;;;6.65;3.90;;;;;;;;;;5064710;28;20143;-69
2022/04/24 07:08:13;;;;;;;8.52;4.22;;;;;;;;;;5087350;28;20048;-69
2022/04/24 07:10:40;;;;;;;7.07;4.03;;;;;;;;;;5074562;28;20449;-69
2022/04/24 07:13:06;;;;;;;6.82;4.05;;;;;;;;;;5080306;28;20055;-69
2022/04/24 07:15:34;;;;;;;5.40;3.30;;;;;;;;;;5068681;28;20085;-69
2022/04/24 07:18:00;;;;;;;12.30;4.28;;;;;;;;;;5065454;28;20094;-69
2022/04/24 07:20:27;;;;;;;5.10;3.30;;;;;;;;;;5083103;28;20452;-69
2022/04/24 07:22:58;;;;;;;9.80;3.00;;;;;;;;;;5070197;28;20044;-70
2022/04/24 07:25:25;;;;;;;6.15;2.88;;;;;;;;;;5065664;28;20498;-70
2022/04/24 07:27:52;;;;;;;6.20;3.20;;;;;;;;;;5065844;28;20098;-69
2022/04/24 07:30:20;;;;;;;5.38;2.97;;;;;;;;;;5084952;28;20041;-69
2022/04/24 07:32:47;;;;;;;6.30;3.85;;;;;;;;;;5066971;28;20577;-69
2022/04/24 07:35:14;;;;;;;5.40;2.58;;;;;;;;;;5051533;28;20554;-69
2022/04/24 07:37:41;;;;;;;4.45;2.45;;;;;;;;;;5076490;28;20325;-69
2022/04/24 07:40:08;;;;;;;6.57;3.30;;;;;;;;;;5083057;28;20071;-70
2022/04/24 07:42:49;;;;;;;5.68;2.60;;;;;;;;;;5069268;28;20028;-69
2022/04/24 07:45:19;;;;;;;3.55;2.10;;;;;;;;;;5052042;28;20051;-69
2022/04/24 07:47:46;;;;;;;3.35;2.33;;;;;;;;;;5066109;28;20049;-69
2022/04/24 07:50:12;;;;;;;5.30;2.30;;;;;;;;;;5062363;28;20215;-69
2022/04/24 07:52:39;;;;;;;6.07;2.30;;;;;;;;;;5064461;28;20083;-70
2022/04/24 07:55:06;;;;;;;5.22;2.90;;;;;;;;;;5042928;28;20036;-69
2022/04/24 07:57:32;;;;;;;5.50;2.80;;;;;;;;;;5081046;28;20131;-69
2022/04/24 07:59:58;;;;;;;5.18;2.30;;;;;;;;;;5078944;28;20052;-69
2022/04/24 08:02:24;;;;;;;6.35;2.45;;;;;;;;;;5085074;28;20043;-70
2022/04/24 08:04:51;;;;;;;5.07;2.40;;;;;;;;;;5050389;28;20426;-70
2022/04/24 08:07:22;;;;;;;4.20;2.10;;;;;;;;;;5083397;28;20121;-69
2022/04/24 08:09:49;;;;;;;4.07;2.13;;;;;;;;;;5067350;28;20036;-70
2022/04/24 08:12:16;;;;;;;3.13;2.42;;;;;;;;;;5065830;28;20066;-69
2022/04/24 08:14:42;;;;;;;5.93;2.30;;;;;;;;;;5084415;28;20089;-70
2022/04/24 08:17:08;;;;;;;3.53;2.45;;;;;;;;;;5063254;28;20040;-70
2022/04/24 08:19:34;;;;;;;4.75;2.45;;;;;;;;;;5046014;28;20047;-70
2022/04/24 08:22:00;;;;;;;7.38;2.30;;;;;;;;;;5064347;28;20397;-69
2022/04/24 08:24:26;;;;;;;6.07;2.70;;;;;;;;;;5086090;28;20235;-70
2022/04/24 08:26:53;;;;;;;3.78;2.13;;;;;;;;;;5081060;28;20043;-70
2022/04/24 08:29:19;;;;;;;4.38;2.67;;;;;;;;;;5065903;28;20040;-69
2022/04/24 08:31:45;;;;;;;4.72;2.25;;;;;;;;;;5047990;28;20468;-69
2022/04/24 08:34:11;;;;;;;3.50;2.30;;;;;;;;;;5078271;28;20040;-70
2022/04/24 08:36:37;;;;;;;3.70;2.15;;;;;;;;;;5080791;28;20067;-70
2022/04/24 08:39:03;;;;;;;5.10;3.17;;;;;;;;;;5083271;28;20123;-70
2022/04/24 08:41:31;;;;;;;6.82;2.75;;;;;;;;;;5083364;28;20040;-69
2022/04/24 08:43:57;;;;;;;3.28;2.33;;;;;;;;;;5064124;28;20040;-70
2022/04/24 08:46:24;;;;;;;6.03;2.25;;;;;;;;;;5081553;28;20111;-70
2022/04/24 08:48:50;;;;;;;4.85;2.42;;;;;;;;;;5081704;28;20076;-70
2022/04/24 08:51:17;;;;;;;5.18;2.28;;;;;;;;;;5066271;28;20081;-70
2022/04/24 08:53:44;;;;;;;8.00;2.63;;;;;;;;;;5084881;28;20058;-70
2022/04/24 08:56:10;;;;;;;6.97;2.75;;;;;;;;;;5080702;28;20563;-70
2022/04/24 08:58:36;;;;;;;7.35;2.90;;;;;;;;;;5083632;28;20500;-69
2022/04/24 09:01:03;;;;;;;6.00;3.17;;;;;;;;;;5063611;28;20083;-70
2022/04/24 09:03:29;;;;;;;5.40;3.03;;;;;;;;;;5067670;28;20263;-70
2022/04/24 09:05:55;;;;;;;8.18;2.75;;;;;;;;;;5060864;28;20114;-69
2022/04/24 09:08:24;;;;;;;4.30;2.72;;;;;;;;;;5066697;28;20054;-70
2022/04/24 09:10:51;;;;;;;3.65;2.33;;;;;;;;;;5067264;28;20070;-69
2022/04/24 09:13:26;;;;;;;3.83;2.30;;;;;;;;;;5066571;28;20044;-70
2022/04/24 09:15:57;;;;;;;5.43;2.55;;;;;;;;;;5080110;28;20114;-70
2022/04/24 09:18:23;;;;;;;7.57;3.13;;;;;;;;;;5084428;28;20091;-69
2022/04/24 09:20:56;;;;;;;5.05;3.13;;;;;;;;;;5064594;28;20127;-69
2022/04/24 09:23:22;;;;;;;6.47;3.67;;;;;;;;;;5063852;28;20135;-69
2022/04/24 09:25:48;;;;;;;6.47;2.60;;;;;;;;;;5064987;28;20512;-69
2022/04/24 09:28:14;;;;;;;4.90;3.20;;;;;;;;;;5063127;28;20056;-69
2022/04/24 09:30:50;;;;;;;4.93;2.60;;;;;;;;;;5061956;28;20053;-69
2022/04/24 09:33:16;;;;;;;5.22;3.22;;;;;;;;;;5065906;28;20087;-69
2022/04/24 09:35:43;;;;;;;5.68;4.13;;;;;;;;;;5061819;28;20642;-69
2022/04/24 09:38:13;;;;;;;4.38;3.10;;;;;;;;;;5081682;28;20044;-69
2022/04/24 09:40:47;;;;;;;11.40;3.97;;;;;;;;;;5061957;28;20044;-70
2022/04/24 09:43:14;;;;;;;7.25;2.88;;;;;;;;;;5065842;28;20094;-70
2022/04/24 09:45:41;;;;;;;6.40;2.70;;;;;;;;;;5066676;28;20149;-70
2022/04/24 09:48:17;;;;;;;10.00;2.97;;;;;;;;;;5080620;28;20041;-70
2022/04/24 09:50:43;;;;;;;8.43;3.78;;;;;;;;;;5078460;28;20069;-70
2022/04/24 09:53:12;;;;;;;5.53;2.83;;;;;;;;;;5083316;28;20048;-69
2022/04/24 09:55:40;;;;;;;6.70;3.03;;;;;;;;;;5065801;28;20363;-70
2022/04/24 09:58:07;;;;;;;7.28;3.00;;;;;;;;;;5064066;28;20414;-70
2022/04/24 10:00:34;;;;;;;6.60;3.28;;;;;;;;;;5063978;28;20053;-69
2022/04/24 10:03:02;;;;;;;6.00;3.05;;;;;;;;;;5061366;28;20048;-70
2022/04/24 10:05:29;;;;;;;9.13;3.30;;;;;;;;;;5061212;28;20098;-70
2022/04/24 10:07:56;;;;;;;10.07;4.10;;;;;;;;;;5062032;28;20510;-70
2022/04/24 10:10:22;;;;;;;7.57;3.40;;;;;;;;;;5054848;28;20097;-70
2022/04/24 10:12:50;;;;;;;6.38;3.50;;;;;;;;;;5044114;28;20052;-70
2022/04/24 10:15:18;;;;;;;4.93;3.10;;;;;;;;;;5060001;28;20411;-70
2022/04/24 10:18:03;;;;;;;7.18;3.97;;;;;;;;;;5057880;28;20045;-70
2022/04/24 10:20:35;;;;;;;5.68;3.58;;;;;;;;;;5056037;28;20051;-70
2022/04/24 10:23:01;;;;;;;6.30;3.72;;;;;;;;;;5059483;28;20052;-70
2022/04/24 10:25:37;;;;;;;10.73;4.30;;;;;;;;;;5054101;28;20628;-70
2022/04/24 10:28:10;;;;;;;6.55;4.28;;;;;;;;;;5055311;28;20145;-70
2022/04/24 10:30:36;;;;;;;;;;;;;;;;;;5053639;28;20067;-70
2022/04/24 10:33:15;;;;;;;7.55;4.40;;;;;;;;;;5062410;28;19960;-70
2022/04/24 10:35:54;;;;;;;6.80;3.75;;;;;;;;;;5057052;28;20045;-70
2022/04/24 10:38:22;;;;;;;10.70;3.78;;;;;;;;;;5057304;28;20127;-70
2022/04/24 10:40:57;;;;;;;5.13;2.83;;;;;;;;;;5061090;28;20047;-70
2022/04/24 10:43:24;;;;;;;9.57;3.42;;;;;;;;;;5047139;28;20059;-70
2022/04/24 10:45:51;;;;;;;6.65;2.78;;;;;;;;;;5062284;28;20040;-70
2022/04/24 10:48:17;;;;;;;4.53;2.92;;;;;;;;;;5063939;28;20036;-70
2022/04/24 10:50:47;;;;;;;3.67;2.45;;;;;;;;;;5060207;28;20125;-70
2022/04/24 10:53:14;;;;;;;7.30;4.72;;;;;;;;;;5066696;28;20478;-71
2022/04/24 10:55:41;;;;;;;6.03;3.40;;;;;;;;;;5063711;28;20131;-70
2022/04/24 10:58:07;;;;;;;6.63;2.97;;;;;;;;;;5064999;28;20474;-70
2022/04/24 11:00:34;;;;;;;6.70;3.80;;;;;;;;;;5066609;28;20391;-70
2022/04/24 11:03:08;;;;;;;7.07;3.63;;;;;;;;;;5062732;28;20055;-70
2022/04/24 11:05:39;;;;;;;10.95;3.40;;;;;;;;;;5063903;28;20071;-70
2022/04/24 11:08:07;;;;;;;7.60;3.60;;;;;;;;;;5067201;28;20093;-70
2022/04/24 11:10:40;;;;;;;5.93;3.75;;;;;;;;;;5065703;28;20490;-70
2022/04/24 11:13:09;;;;;;;7.70;3.78;;;;;;;;;;5060655;28;20496;-69
2022/04/24 11:15:35;;;;;;;6.30;3.55;;;;;;;;;;5060358;28;20452;-70
2022/04/24 11:18:01;;;;;;;6.45;3.30;;;;;;;;;;5066294;28;20505;-69
2022/04/24 11:20:31;;;;;;;8.15;4.00;;;;;;;;;;5063574;28;20084;-69
2022/04/24 11:22:58;;;;;;;6.50;3.20;;;;;;;;;;5062427;28;20068;-70
2022/04/24 11:25:27;;;;;;;7.03;3.35;;;;;;;;;;5068971;28;20047;-70
2022/04/24 11:27:54;;;;;;;5.35;3.72;;;;;;;;;;5066759;28;20382;-70
2022/04/24 11:30:21;;;;;;;5.47;3.33;;;;;;;;;;5055694;28;20079;-69
2022/04/24 11:32:54;;;;;;;13.23;3.97;;;;;;;;;;5053353;28;20105;-70
2022/04/24 11:35:22;;;;;;;5.25;3.28;;;;;;;;;;5063987;28;20037;-69
2022/04/24 11:37:48;;;;;;;8.15;4.05;;;;;;;;;;5066399;28;20083;-69
2022/04/24 11:40:14;;;;;;;7.25;3.53;;;;;;;;;;5057424;28;20040;-69
2022/04/24 11:42:41;;;;;;;6.38;4.13;;;;;;;;;;5060396;28;20072;-69
2022/04/24 11:50:51;;;;;;;6.32;3.70;;;;;;;;;;5063787;28;20036;-70
2022/04/24 11:53:18;;;;;;;5.25;3.28;;;;;;;;;;5066247;28;20270;-69
2022/04/24 11:56:03;;;;;;;6.43;3.95;;;;;;;;;;5066895;28;20052;-69
2022/04/24 11:58:34;;;;;;;6.55;3.88;;;;;;;;;;5065455;28;20041;-70
2022/04/24 12:01:02;;;;;;;7.20;4.15;;;;;;;;;;5067629;28;20548;-69
2022/04/24 12:03:32;;;;;;;9.23;4.68;;;;;;;;;;5070185;28;20036;-70
2022/04/24 12:05:59;;;;;;;9.18;4.10;;;;;;;;;;5066828;28;20044;-70
2022/04/24 12:08:26;;;;;;;7.82;4.18;;;;;;;;;;5068292;28;20040;-70
2022/04/24 12:10:52;;;;;;;5.95;4.25;;;;;;;;;;5069436;28;20042;-70
2022/04/24 12:13:25;;;;;;;8.48;3.92;;;;;;;;;;5067054;28;20041;-69
2022/04/24 12:15:53;;;;;;;9.25;4.35;;;;;;;;;;5059779;28;20043;-69
2022/04/24 12:18:25;;;;;;;9.05;4.05;;;;;;;;;;5063439;28;20781;-69
2022/04/24 12:20:52;;;;;;;7.20;3.45;;;;;;;;;;5062200;28;20225;-69
2022/04/24 12:23:19;;;;;;;6.03;3.92;;;;;;;;;;5062717;28;20041;-69
2022/04/24 12:25:49;;;;;;;7.50;4.05;;;;;;;;;;5064098;28;20063;-69
2022/04/24 12:28:27;;;;;;;7.40;4.32;;;;;;;;;;5064376;28;20131;-69
2022/04/24 12:30:53;;;;;;;7.10;4.25;;;;;;;;;;5062164;28;20486;-69
2022/04/24 12:33:19;;;;;;;6.30;4.82;;;;;;;;;;5064429;28;20033;-69
2022/04/24 12:35:46;;;;;;;7.55;4.20;;;;;;;;;;5064985;28;20098;-69
2022/04/24 12:38:16;;;;;;;12.13;5.13;;;;;;;;;;5067027;28;20043;-69
2022/04/24 12:40:42;;;;;;;11.25;4.65;;;;;;;;;;5064707;28;20076;-70
2022/04/24 12:43:08;;;;;;;7.82;4.90;;;;;;;;;;5068468;28;20059;-69
2022/04/24 12:45:34;;;;;;;8.77;4.28;;;;;;;;;;5066034;28;20047;-69
2022/04/24 12:48:00;;;;;;;7.35;4.68;;;;;;;;;;5065738;28;20044;-69
2022/04/24 12:50:26;;;;;;;6.53;4.50;;;;;;;;;;5066057;28;20457;-69
2022/04/24 12:52:52;;;;;;;7.97;4.70;;;;;;;;;;5068299;28;20063;-69
2022/04/24 12:55:19;;;;;;;8.32;4.47;;;;;;;;;;5069124;28;20032;-70
2022/04/24 12:57:45;;;;;;;8.35;4.80;;;;;;;;;;5075720;28;20093;-70
2022/04/24 13:00:11;;;;;;;7.53;5.05;;;;;;;;;;5050166;28;20604;-69
2022/04/24 13:02:37;;;;;;;6.47;4.18;;;;;;;;;;5089023;28;20907;-69
2022/04/24 13:05:04;;;;;;;8.32;4.93;;;;;;;;;;5071559;28;20044;-69
2022/04/24 13:07:30;;;;;;;10.80;5.03;;;;;;;;;;5085312;28;20428;-69
2022/04/24 13:09:58;;;;;;;8.60;3.92;;;;;;;;;;5088770;28;20493;-70
2022/04/24 13:12:24;;;;;;;8.05;4.18;;;;;;;;;;5076444;28;20066;-69
2022/04/24 13:14:51;;;;;;;8.55;4.40;;;;;;;;;;5084482;28;20151;-69
2022/04/24 13:20:02;;;;;;;7.22;4.45;;;;;;;;;;5079729;28;20463;-70
2022/04/24 13:22:28;;;;;;;8.25;3.95;;;;;;;;;;5072843;28;20047;-70
2022/04/24 13:24:54;;;;;;;6.85;3.50;;;;;;;;;;5084094;28;20032;-70
2022/04/24 13:27:21;;;;;;;4.72;3.25;;;;;;;;;;5087961;28;20043;-71
2022/04/24 13:29:47;;;;;;;5.45;4.05;;;;;;;;;;5089377;28;20549;-71
2022/04/24 13:32:14;;;;;;;10.60;3.70;;;;;;;;;;5067384;28;20044;-70
2022/04/24 13:34:40;;;;;;;13.27;4.50;;;;;;;;;;5065456;28;20084;-70
2022/04/24 13:39:51;;;;;;;4.53;3.38;;;;;;;;;;5083561;28;20477;-70
2022/04/24 13:42:17;;;;;;;7.65;3.75;;;;;;;;;;5062810;28;20048;-69
2022/04/24 13:44:43;;;;;;;10.57;3.83;;;;;;;;;;5084122;28;20032;-70
2022/04/24 13:47:10;;;;;;;6.97;4.03;;;;;;;;;;5081523;28;20074;-70
2022/04/24 13:49:36;;;;;;;9.52;4.47;;;;;;;;;;5086059;28;20081;-69
2022/04/24 13:52:02;;;;;;;5.72;3.95;;;;;;;;;;5080136;28;20044;-70
2022/04/24 13:54:28;;;;;;;7.55;3.53;;;;;;;;;;5070264;28;20048;-70
2022/04/24 13:56:56;;;;;;;4.35;3.10;;;;;;;;;;5068020;28;20039;-70
2022/04/24 13:59:26;;;;;;;6.60;3.55;;;;;;;;;;5085175;28;20040;-69
2022/04/24 14:01:52;;;;;;;8.07;2.92;;;;;;;;;;5058254;28;20126;-69
2022/04/24 14:04:20;;;;;;;6.75;3.58;;;;;;;;;;5075812;28;20263;-69
2022/04/24 14:06:46;;;;;;;5.10;3.00;;;;;;;;;;5087042;28;20126;-69
2022/04/24 14:09:12;;;;;;;5.20;3.38;;;;;;;;;;5073081;28;20052;-69
2022/04/24 14:11:38;;;;;;;5.82;3.15;;;;;;;;;;5063454;28;20040;-69
2022/04/24 14:14:05;;;;;;;10.15;3.15;;;;;;;;;;5073946;28;20036;-69
2022/04/24 14:16:31;;;;;;;6.20;3.40;;;;;;;;;;5070808;28;20041;-69
2022/04/24 14:18:57;;;;;;;4.53;3.47;;;;;;;;;;5070296;28;20032;-69
2022/04/24 14:21:23;;;;;;;7.70;3.80;;;;;;;;;;5066590;28;20095;-70
2022/04/24 14:23:50;;;;;;;6.32;3.00;;;;;;;;;;5059057;28;20044;-69
2022/04/24 14:26:16;;;;;;;6.68;3.97;;;;;;;;;;5069143;28;20081;-69
2022/04/24 14:28:42;;;;;;;7.28;3.33;;;;;;;;;;5075016;28;20044;-69
2022/04/24 14:31:09;;;;;;;5.32;3.03;;;;;;;;;;5073589;28;20130;-70
2022/04/24 14:33:36;;;;;;;7.47;3.53;;;;;;;;;;5067481;28;20385;-69
2022/04/24 14:36:02;;;;;;;26.35;3.58;;;;;;;;;;5067307;28;20160;-69
2022/04/24 14:38:28;;;;;;;7.53;3.00;;;;;;;;;;5055745;28;20054;-70
2022/04/24 14:40:55;;;;;;;7.97;4.18;;;;;;;;;;5066959;28;20482;-69
2022/04/24 14:43:21;;;;;;;10.40;3.30;;;;;;;;;;5077795;28;20043;-69
2022/04/24 14:57:03;;;;;;;9.35;3.80;;;;;;;;;;5052788;28;20408;-69
2022/04/24 14:59:31;;;;;;;6.07;3.35;;;;;;;;;;5061039;28;20156;-69